createdAt,value
2023-08-28T00:00:28.978Z,2.80
2023-08-28T00:03:00.055Z,4.00
2023-08-28T00:05:32.738Z,4.90
2023-08-28T00:08:05.551Z,2.50
2023-08-28T00:10:37.195Z,2.60
2023-08-28T00:13:07.924Z,2.10
2023-08-28T00:15:38.951Z,3.30
2023-08-28T00:18:10.002Z,5.30
2023-08-28T00:20:40.973Z,3.00
2023-08-28T00:23:11.581Z,3.50
2023-08-28T00:25:42.497Z,3.80
2023-08-28T00:28:13.177Z,3.50
2023-08-28T00:30:44.359Z,3.30
2023-08-28T00:33:14.964Z,2.60
2023-08-28T00:35:46.340Z,3.30
2023-08-28T00:38:17.442Z,4.40
2023-08-28T00:40:48.038Z,3.70
2023-08-28T00:43:18.660Z,5.40
2023-08-28T00:45:49.896Z,2.50
2023-08-28T00:48:24.096Z,3.10
2023-08-28T00:50:55.551Z,3.00
2023-08-28T00:53:27.155Z,4.30
2023-08-28T00:55:58.477Z,4.30
2023-08-28T00:58:29.724Z,3.90
2023-08-28T01:01:00.388Z,4.40
2023-08-28T01:03:32.025Z,2.90
2023-08-28T01:06:10.401Z,6.20
2023-08-28T01:08:52.847Z,5.10
2023-08-28T01:11:32.644Z,4.70
2023-08-28T01:14:09.172Z,3.90
2023-08-28T01:16:41.475Z,4.60
2023-08-28T01:19:28.404Z,6.30
2023-08-28T01:22:08.326Z,4.60
2023-08-28T01:24:43.079Z,4.70
2023-08-28T01:27:14.977Z,4.20
2023-08-28T01:29:45.830Z,6.60
2023-08-28T01:32:16.427Z,3.50
2023-08-28T01:34:47.120Z,5.20
2023-08-28T01:37:21.621Z,4.20
2023-08-28T01:39:59.805Z,3.60
2023-08-28T01:42:32.116Z,6.00
2023-08-28T01:45:04.316Z,4.50
2023-08-28T01:47:35.274Z,4.40
2023-08-28T01:50:06.783Z,4.50
2023-08-28T01:52:37.350Z,5.00
2023-08-28T01:55:09.472Z,3.80
2023-08-28T01:57:49.135Z,4.80
2023-08-28T02:00:20.510Z,4.10
2023-08-28T02:02:51.284Z,8.20
2023-08-28T02:05:22.210Z,4.60
2023-08-28T02:07:53.272Z,5.10
2023-08-28T02:10:24.245Z,5.30
2023-08-28T02:12:55.079Z,5.10
2023-08-28T02:15:26.219Z,5.10
2023-08-28T02:17:56.838Z,5.90
2023-08-28T02:20:27.487Z,6.70
2023-08-28T02:22:58.371Z,6.80
2023-08-28T02:25:29.101Z,6.40
2023-08-28T02:28:00.199Z,7.30
2023-08-28T02:30:31.352Z,5.50
2023-08-28T02:33:02.285Z,6.30
2023-08-28T02:35:33.872Z,7.10
2023-08-28T02:38:07.895Z,5.90
2023-08-28T02:40:39.647Z,5.60
2023-08-28T02:43:10.684Z,6.70
2023-08-28T02:45:42.441Z,11.80
2023-08-28T02:48:13.145Z,6.10
2023-08-28T02:50:43.924Z,6.90
2023-08-28T02:53:14.903Z,5.70
2023-08-28T02:56:05.667Z,7.20
2023-08-28T02:58:36.264Z,6.80
2023-08-28T03:01:06.825Z,9.50
2023-08-28T03:03:37.639Z,6.50
2023-08-28T03:06:09.014Z,7.80
2023-08-28T03:08:39.743Z,9.10
2023-08-28T03:11:10.398Z,7.10
2023-08-28T03:13:41.018Z,7.40
2023-08-28T03:16:12.488Z,8.20
2023-08-28T03:18:43.489Z,7.20
2023-08-28T03:21:14.528Z,6.00
2023-08-28T03:23:46.059Z,10.90
2023-08-28T03:26:17.333Z,7.90
2023-08-28T03:28:47.934Z,9.10
2023-08-28T03:31:18.712Z,10.10
2023-08-28T03:33:50.254Z,7.40
2023-08-28T03:36:21.344Z,6.20
2023-08-28T03:38:52.384Z,9.90
2023-08-28T03:41:22.914Z,9.90
2023-08-28T03:43:54.084Z,7.40
2023-08-28T03:46:24.783Z,8.80
2023-08-28T03:48:55.710Z,10.80
2023-08-28T03:51:26.663Z,9.90
2023-08-28T03:53:57.572Z,8.80
2023-08-28T03:56:28.381Z,12.10
2023-08-28T03:58:59.088Z,9.50
2023-08-28T04:01:30.208Z,9.40
2023-08-28T04:04:01.282Z,10.20
2023-08-28T04:06:33.301Z,11.10
2023-08-28T04:09:04.353Z,9.60
2023-08-28T04:11:35.638Z,12.00
2023-08-28T04:14:06.741Z,14.50
2023-08-28T04:16:38.049Z,12.80
2023-08-28T04:19:09.013Z,9.40
2023-08-28T04:21:39.648Z,14.00
2023-08-28T04:24:11.031Z,10.50
2023-08-28T04:26:41.755Z,9.60
2023-08-28T04:29:12.939Z,10.40
2023-08-28T04:31:43.510Z,9.40
2023-08-28T04:34:14.168Z,12.00
2023-08-28T04:36:45.249Z,9.30
2023-08-28T04:39:15.762Z,11.40
2023-08-28T04:41:46.263Z,11.20
2023-08-28T04:44:17.163Z,7.80
2023-08-28T04:46:49.502Z,10.40
2023-08-28T04:49:20.467Z,8.50
2023-08-28T04:51:51.705Z,8.30
2023-08-28T04:54:22.257Z,8.10
2023-08-28T04:56:53.380Z,9.60
2023-08-28T04:59:24.918Z,12.20
2023-08-28T05:01:55.980Z,8.10
2023-08-28T05:04:26.739Z,8.70
2023-08-28T05:06:57.446Z,14.40
2023-08-28T05:09:28.101Z,9.10
2023-08-28T05:11:59.082Z,11.80
2023-08-28T05:14:29.663Z,8.90
2023-08-28T05:17:01.085Z,7.80
2023-08-28T05:19:32.161Z,9.40
2023-08-28T05:22:02.851Z,14.20
2023-08-28T05:24:33.459Z,8.50
2023-08-28T05:27:04.071Z,8.60
2023-08-28T05:29:34.986Z,13.00
2023-08-28T05:32:06.074Z,8.70
2023-08-28T05:34:36.828Z,7.90
2023-08-28T05:37:08.868Z,11.60
2023-08-28T05:39:40.064Z,8.70
2023-08-28T05:42:11.031Z,9.00
2023-08-28T05:44:42.044Z,7.80
2023-08-28T05:47:12.889Z,10.80
2023-08-28T05:49:43.906Z,8.10
2023-08-28T05:52:15.279Z,7.20
2023-08-28T05:54:46.273Z,14.80
2023-08-28T05:57:16.885Z,11.80
2023-08-28T05:59:47.733Z,8.40
2023-08-28T06:02:19.017Z,9.40
2023-08-28T06:04:53.350Z,11.50
2023-08-28T06:07:24.250Z,10.60
2023-08-28T06:09:54.886Z,8.90
2023-08-28T06:12:26.152Z,8.90
2023-08-28T06:14:57.177Z,9.60
2023-08-28T06:17:27.766Z,11.80
2023-08-28T06:19:58.840Z,9.30
2023-08-28T06:22:30.981Z,8.50
2023-08-28T06:25:01.659Z,7.80
2023-08-28T06:27:32.330Z,6.50
2023-08-28T06:30:02.969Z,8.00
2023-08-28T06:32:34.001Z,8.20
2023-08-28T06:35:05.284Z,10.80
2023-08-28T06:37:36.160Z,7.60
2023-08-28T06:40:09.621Z,9.30
2023-08-28T06:42:40.294Z,7.50
2023-08-28T06:45:12.622Z,7.90
2023-08-28T06:47:43.296Z,11.30
2023-08-28T06:50:14.726Z,7.10
2023-08-28T06:52:45.408Z,7.00
2023-08-28T06:55:16.621Z,9.90
2023-08-28T06:57:49.072Z,7.70
2023-08-28T07:00:21.418Z,9.30
2023-08-28T07:02:53.756Z,9.30
2023-08-28T07:05:24.806Z,7.20
2023-08-28T07:07:56.578Z,8.40
2023-08-28T07:10:27.705Z,7.90
2023-08-28T07:12:58.920Z,10.60
2023-08-28T07:15:59.314Z,6.00
2023-08-28T07:18:31.072Z,6.00
2023-08-28T07:21:02.184Z,5.80
2023-08-28T07:23:32.786Z,7.20
2023-08-28T07:26:04.208Z,4.90
2023-08-28T07:28:35.713Z,7.90
2023-08-28T07:31:06.489Z,5.80
2023-08-28T07:33:38.201Z,6.10
2023-08-28T07:36:09.849Z,5.80
2023-08-28T07:38:43.340Z,4.90
2023-08-28T07:41:13.880Z,5.30
2023-08-28T07:43:45.787Z,6.20
2023-08-28T07:46:16.702Z,7.50
2023-08-28T07:48:47.683Z,7.50
2023-08-28T07:51:18.656Z,6.50
2023-08-28T07:53:49.147Z,4.80
2023-08-28T07:56:20.074Z,6.70
2023-08-28T07:58:51.631Z,6.40
2023-08-28T08:01:22.299Z,5.40
2023-08-28T08:03:53.683Z,4.90
2023-08-28T08:06:24.453Z,6.00
2023-08-28T08:08:55.149Z,8.40
2023-08-28T08:11:26.142Z,6.60
2023-08-28T08:13:56.831Z,7.10
2023-08-28T08:16:28.180Z,6.50
2023-08-28T08:18:58.799Z,7.80
2023-08-28T08:21:29.816Z,4.80
2023-08-28T08:24:00.926Z,4.00
2023-08-28T08:26:32.264Z,6.30
2023-08-28T08:29:05.145Z,5.20
2023-08-28T08:31:36.551Z,6.00
2023-08-28T08:34:07.955Z,5.80
2023-08-28T08:36:40.866Z,3.30
2023-08-28T08:39:11.696Z,6.30
2023-08-28T08:41:44.364Z,5.40
2023-08-28T08:44:15.315Z,5.70
2023-08-28T08:46:48.570Z,3.80
2023-08-28T08:49:25.368Z,5.80
2023-08-28T08:52:01.436Z,5.00
2023-08-28T08:54:37.998Z,5.90
2023-08-28T08:57:24.181Z,4.80
2023-08-28T08:59:56.387Z,7.20
2023-08-28T09:02:28.564Z,5.80
2023-08-28T09:05:00.741Z,6.90
2023-08-28T09:07:32.717Z,5.30
2023-08-28T09:10:05.095Z,5.80
2023-08-28T09:12:35.933Z,3.90
2023-08-28T09:15:08.456Z,4.50
2023-08-28T09:17:42.785Z,6.20
2023-08-28T09:20:18.377Z,6.90
2023-08-28T09:22:53.904Z,3.50
2023-08-28T09:25:27.674Z,3.70
2023-08-28T09:27:58.937Z,3.70
2023-08-28T09:30:37.405Z,5.10
2023-08-28T09:33:10.328Z,5.40
2023-08-28T09:35:43.233Z,6.30
2023-08-28T09:38:14.363Z,4.50
2023-08-28T09:40:47.201Z,3.50
2023-08-28T09:43:18.801Z,4.30
2023-08-28T09:45:49.938Z,4.00
2023-08-28T09:48:21.331Z,3.60
2023-08-28T09:50:55.092Z,2.30
2023-08-28T09:53:28.807Z,6.30
2023-08-28T09:56:00.276Z,5.60
2023-08-28T09:58:31.936Z,2.30
2023-08-28T10:01:03.412Z,3.90
2023-08-28T10:03:37.660Z,3.60
2023-08-28T10:06:09.604Z,3.10
2023-08-28T10:08:41.047Z,2.90
2023-08-28T10:11:12.328Z,6.30
2023-08-28T10:13:43.800Z,3.50
2023-08-28T10:16:21.658Z,2.10
2023-08-28T10:18:58.768Z,2.40
2023-08-28T10:21:30.799Z,3.20
2023-08-28T10:24:03.127Z,8.30
2023-08-28T10:26:35.119Z,2.60
2023-08-28T10:29:07.595Z,1.80
2023-08-28T10:31:39.543Z,1.70
2023-08-28T10:34:11.862Z,5.90
2023-08-28T10:37:00.594Z,11.60
2023-08-28T10:39:35.719Z,4.80
2023-08-28T10:42:09.171Z,7.40
2023-08-28T10:44:41.135Z,2.50
2023-08-28T10:47:16.383Z,3.00
2023-08-28T10:49:47.645Z,4.70
2023-08-28T10:52:23.827Z,2.60
2023-08-28T10:54:57.405Z,3.40
2023-08-28T10:57:29.065Z,3.10
2023-08-28T11:00:19.193Z,2.20
2023-08-28T11:03:16.058Z,5.80
2023-08-28T11:05:48.088Z,2.70
2023-08-28T11:08:19.111Z,3.60
2023-08-28T11:11:21.225Z,3.30
2023-08-28T11:14:04.074Z,3.20
2023-08-28T11:16:40.952Z,4.50
2023-08-28T11:19:11.775Z,4.40
2023-08-28T11:21:44.783Z,3.60
2023-08-28T11:24:27.987Z,2.30
2023-08-28T11:26:58.754Z,3.90
2023-08-28T11:29:32.706Z,3.70
2023-08-28T11:32:05.757Z,2.00
2023-08-28T11:34:38.359Z,2.00
2023-08-28T11:37:09.134Z,1.90
2023-08-28T11:39:39.822Z,2.00
2023-08-28T11:42:15.307Z,2.20
2023-08-28T11:44:50.145Z,1.70
2023-08-28T11:47:26.918Z,2.40
2023-08-28T11:49:57.916Z,4.30
2023-08-28T11:52:29.077Z,3.60
2023-08-28T11:55:07.376Z,3.10
2023-08-28T11:57:38.075Z,3.00
2023-08-28T12:00:15.515Z,3.20
2023-08-28T12:02:48.123Z,1.30
2023-08-28T12:05:20.821Z,3.60
2023-08-28T12:07:51.842Z,2.20
2023-08-28T12:10:22.876Z,1.60
2023-08-28T12:12:57.538Z,1.40
2023-08-28T12:15:35.219Z,1.40
2023-08-28T12:18:07.645Z,3.10
2023-08-28T12:20:39.860Z,5.20
2023-08-28T12:23:13.457Z,1.70
2023-08-28T12:25:45.034Z,1.40
2023-08-28T12:28:19.282Z,1.30
2023-08-28T12:30:55.178Z,2.70
2023-08-28T12:33:26.887Z,1.60
2023-08-28T12:35:57.642Z,2.90
2023-08-28T12:38:31.021Z,1.80
2023-08-28T12:41:01.687Z,1.80
2023-08-28T12:43:37.357Z,1.80
2023-08-28T12:46:08.485Z,1.30
2023-08-28T12:48:39.822Z,1.60
2023-08-28T12:51:10.782Z,4.10
2023-08-28T12:53:41.445Z,1.80
2023-08-28T12:56:12.133Z,1.90
2023-08-28T12:58:43.036Z,2.30
2023-08-28T13:01:14.645Z,1.30
2023-08-28T13:03:47.615Z,2.00
2023-08-28T13:06:18.311Z,2.30
2023-08-28T13:08:50.817Z,3.80
2023-08-28T13:11:21.714Z,2.60
2023-08-28T13:13:52.226Z,1.50
2023-08-28T13:16:22.851Z,2.10
2023-08-28T13:18:53.741Z,3.40
2023-08-28T13:21:24.693Z,3.40
2023-08-28T13:23:55.707Z,1.80
2023-08-28T13:26:26.800Z,3.20
2023-08-28T13:28:59.054Z,1.20
2023-08-28T13:31:32.627Z,2.00
2023-08-28T13:34:03.767Z,1.50
2023-08-28T13:36:34.775Z,5.10
2023-08-28T13:39:06.133Z,2.00
2023-08-28T13:41:38.622Z,3.20
2023-08-28T13:44:09.610Z,1.70
2023-08-28T13:46:42.377Z,1.30
2023-08-28T13:49:13.682Z,1.60
2023-08-28T13:51:44.806Z,2.60
2023-08-28T13:54:16.192Z,2.30
2023-08-28T13:56:47.383Z,3.40
2023-08-28T13:59:18.378Z,1.50
2023-08-28T14:01:49.409Z,2.00
2023-08-28T14:04:20.139Z,2.10
2023-08-28T14:06:50.953Z,1.20
2023-08-28T14:09:21.653Z,2.00
2023-08-28T14:11:52.383Z,1.20
2023-08-28T14:14:23.108Z,2.10
2023-08-28T14:16:54.018Z,2.10
2023-08-28T14:19:25.594Z,2.00
2023-08-28T14:21:56.138Z,2.10
2023-08-28T14:24:27.294Z,4.00
2023-08-28T14:26:58.406Z,3.40
2023-08-28T14:29:29.219Z,2.90
2023-08-28T14:32:00.161Z,1.70
2023-08-28T14:34:30.837Z,1.40
2023-08-28T14:37:01.534Z,4.40
2023-08-28T14:39:33.828Z,3.00
2023-08-28T14:42:06.204Z,1.90
2023-08-28T14:44:36.878Z,1.30
2023-08-28T14:47:07.554Z,3.10
2023-08-28T14:49:38.460Z,2.00
2023-08-28T14:52:10.562Z,2.50
2023-08-28T14:54:41.799Z,3.30
2023-08-28T14:57:12.880Z,1.50
2023-08-28T14:59:43.755Z,3.40
2023-08-28T15:02:14.487Z,1.30
2023-08-28T15:04:45.511Z,1.30
2023-08-28T15:07:16.675Z,1.40
2023-08-28T15:09:47.504Z,2.00
2023-08-28T15:12:18.575Z,1.20
2023-08-28T15:14:49.614Z,2.00
2023-08-28T15:17:20.429Z,1.30
2023-08-28T15:19:51.042Z,7.40
2023-08-28T15:22:21.706Z,12.90
2023-08-28T15:24:52.821Z,3.80
2023-08-28T15:27:23.495Z,1.30
2023-08-28T15:29:58.151Z,1.40
2023-08-28T15:32:29.156Z,1.50
2023-08-28T15:35:01.134Z,2.10
2023-08-28T15:37:32.483Z,3.20
2023-08-28T15:40:04.662Z,1.40
2023-08-28T15:42:35.297Z,7.60
2023-08-28T15:45:06.666Z,2.00
2023-08-28T15:47:38.463Z,2.70
2023-08-28T15:50:10.844Z,1.30
2023-08-28T15:52:41.746Z,1.60
2023-08-28T15:55:13.035Z,1.20
2023-08-28T15:57:44.202Z,1.20
2023-08-28T16:00:16.900Z,2.80
2023-08-28T16:02:48.884Z,3.80
2023-08-28T16:05:20.134Z,1.40
2023-08-28T16:07:51.032Z,1.10
2023-08-28T16:10:22.123Z,3.60
2023-08-28T16:12:52.726Z,1.20
2023-08-28T16:15:23.258Z,1.00
2023-08-28T16:17:54.300Z,1.80
2023-08-28T16:20:29.300Z,1.00
2023-08-28T16:22:59.957Z,2.10
2023-08-28T16:25:30.918Z,1.00
2023-08-28T16:28:01.843Z,1.10
2023-08-28T16:30:32.711Z,2.30
2023-08-28T16:33:04.004Z,2.40
2023-08-28T16:35:35.111Z,2.20
2023-08-28T16:38:06.445Z,3.20
2023-08-28T16:40:37.718Z,2.80
2023-08-28T16:43:08.756Z,1.30
2023-08-28T16:45:39.406Z,1.00
2023-08-28T16:48:10.537Z,3.70
2023-08-28T16:50:43.115Z,2.60
2023-08-28T16:53:14.474Z,1.50
2023-08-28T16:55:45.502Z,1.00
2023-08-28T16:58:16.529Z,1.60
2023-08-28T17:00:47.688Z,1.20
2023-08-28T17:03:19.802Z,1.60
2023-08-28T17:05:58.042Z,1.70
2023-08-28T17:08:29.421Z,1.10
2023-08-28T17:11:00.962Z,1.70
2023-08-28T17:13:31.594Z,1.40
2023-08-28T17:16:02.683Z,2.40
2023-08-28T17:18:34.202Z,1.60
2023-08-28T17:21:04.829Z,2.30
2023-08-28T17:23:35.680Z,1.90
2023-08-28T17:26:06.302Z,2.20
2023-08-28T17:28:37.317Z,3.30
2023-08-28T17:31:09.236Z,1.60
2023-08-28T17:33:40.801Z,3.70
2023-08-28T17:36:11.996Z,4.90
2023-08-28T17:38:43.024Z,1.70
2023-08-28T17:41:14.149Z,1.40
2023-08-28T17:43:44.848Z,1.50
2023-08-28T17:46:15.879Z,1.10
2023-08-28T17:48:46.521Z,3.10
2023-08-28T17:51:17.051Z,3.50
2023-08-28T17:53:47.683Z,2.20
2023-08-28T17:56:18.898Z,1.00
2023-08-28T17:58:50.211Z,1.30
2023-08-28T18:01:21.131Z,2.00
2023-08-28T18:03:51.998Z,2.70
2023-08-28T18:06:22.888Z,4.90
2023-08-28T18:08:53.607Z,1.80
2023-08-28T18:11:24.374Z,4.10
2023-08-28T18:13:59.581Z,3.50
2023-08-28T18:16:30.323Z,1.80
2023-08-28T18:19:01.537Z,2.20
2023-08-28T18:21:32.442Z,1.60
2023-08-28T18:24:04.536Z,1.50
2023-08-28T18:26:35.368Z,1.20
2023-08-28T18:29:06.163Z,2.40
2023-08-28T18:31:37.745Z,1.10
2023-08-28T18:34:09.116Z,2.50
2023-08-28T18:36:40.527Z,4.20
2023-08-28T18:39:11.600Z,2.80
2023-08-28T18:41:45.903Z,2.50
2023-08-28T18:44:19.557Z,1.40
2023-08-28T18:46:50.850Z,4.10
2023-08-28T18:49:21.775Z,1.60
2023-08-28T18:51:52.495Z,1.70
2023-08-28T18:54:24.829Z,2.10
2023-08-28T18:56:55.504Z,1.60
2023-08-28T18:59:26.735Z,4.50
2023-08-28T19:01:57.684Z,3.10
2023-08-28T19:04:28.315Z,8.70
2023-08-28T19:06:59.134Z,3.80
2023-08-28T19:09:29.845Z,1.70
2023-08-28T19:12:01.305Z,7.90
2023-08-28T19:14:31.944Z,3.70
2023-08-28T19:17:03.306Z,1.60
2023-08-28T19:19:33.794Z,4.30
2023-08-28T19:22:04.488Z,4.70
2023-08-28T19:24:34.931Z,3.40
2023-08-28T19:27:06.061Z,1.70
2023-08-28T19:29:38.167Z,1.80
2023-08-28T19:32:14.105Z,2.80
2023-08-28T19:34:44.542Z,2.10
2023-08-28T19:37:15.430Z,2.50
2023-08-28T19:39:47.753Z,1.90
2023-08-28T19:42:18.303Z,3.10
2023-08-28T19:44:48.950Z,1.60
2023-08-28T19:47:19.706Z,2.60
2023-08-28T19:49:50.904Z,3.40
2023-08-28T19:52:21.872Z,3.30
2023-08-28T19:54:53.559Z,3.60
2023-08-28T19:57:25.976Z,2.90
2023-08-28T19:59:56.751Z,2.60
2023-08-28T20:02:27.401Z,2.30
2023-08-28T20:04:58.273Z,2.20
2023-08-28T20:07:28.793Z,3.90
2023-08-28T20:09:59.353Z,4.50
2023-08-28T20:12:30.320Z,1.80
2023-08-28T20:15:01.418Z,1.90
2023-08-28T20:17:32.384Z,2.30
2023-08-28T20:20:06.265Z,3.10
2023-08-28T20:22:36.828Z,2.00
2023-08-28T20:25:08.705Z,2.50
2023-08-28T20:27:39.495Z,3.10
2023-08-28T20:30:11.842Z,2.50
2023-08-28T20:32:42.953Z,7.50
2023-08-28T20:35:14.075Z,20.30
2023-08-28T20:37:44.839Z,4.90
2023-08-28T20:40:16.216Z,14.20
2023-08-28T20:42:48.258Z,4.80
2023-08-28T20:45:19.525Z,2.70
2023-08-28T20:47:52.750Z,2.30
2023-08-28T20:50:24.532Z,3.60
2023-08-28T20:52:56.286Z,2.90
2023-08-28T20:55:27.204Z,4.10
2023-08-28T20:57:58.066Z,2.00
2023-08-28T21:00:28.926Z,2.10
2023-08-28T21:02:59.898Z,1.80
2023-08-28T21:05:30.841Z,3.00
2023-08-28T21:08:02.195Z,6.50
2023-08-28T21:10:33.392Z,2.00
2023-08-28T21:13:04.354Z,4.40
2023-08-28T21:15:35.510Z,3.50
2023-08-28T21:18:07.274Z,5.30
2023-08-28T21:20:41.566Z,2.40
2023-08-28T21:23:12.210Z,3.10
2023-08-28T21:25:43.848Z,2.80
2023-08-28T21:28:16.380Z,7.20
2023-08-28T21:30:48.140Z,3.20
2023-08-28T21:33:19.162Z,4.90
2023-08-28T21:35:50.901Z,2.20
2023-08-28T21:38:21.696Z,3.40
2023-08-28T21:40:55.621Z,3.00
2023-08-28T21:43:27.876Z,3.90
2023-08-28T21:45:59.675Z,6.00
2023-08-28T21:48:32.123Z,3.40
2023-08-28T21:51:04.207Z,3.30
2023-08-28T21:53:35.614Z,2.90
2023-08-28T21:56:06.755Z,2.80
2023-08-28T21:58:37.370Z,2.50
2023-08-28T22:01:09.930Z,2.30
2023-08-28T22:03:41.045Z,3.60
2023-08-28T22:06:11.578Z,16.00
2023-08-28T22:08:42.262Z,3.50
2023-08-28T22:11:12.976Z,7.40
2023-08-28T22:13:43.827Z,3.20
2023-08-28T22:16:15.169Z,3.90
2023-08-28T22:18:46.251Z,8.80
2023-08-28T22:21:17.024Z,2.70
2023-08-28T22:23:47.790Z,2.90
2023-08-28T22:26:18.556Z,3.20
2023-08-28T22:28:49.403Z,3.90
2023-08-28T22:31:20.697Z,4.70
2023-08-28T22:33:51.430Z,3.50
2023-08-28T22:36:22.538Z,3.10
2023-08-28T22:38:53.458Z,3.50
2023-08-28T22:41:24.683Z,2.70
2023-08-28T22:43:55.294Z,4.50
2023-08-28T22:46:26.349Z,2.20
2023-08-28T22:48:56.974Z,3.20
2023-08-28T22:51:27.563Z,3.50
2023-08-28T22:53:58.144Z,5.30
2023-08-28T22:56:29.573Z,3.00
2023-08-28T22:59:00.359Z,2.30
2023-08-28T23:01:31.530Z,3.30
2023-08-28T23:04:02.323Z,2.00
2023-08-28T23:06:33.402Z,3.90
2023-08-28T23:09:04.246Z,4.50
2023-08-28T23:11:34.865Z,3.30
2023-08-28T23:14:05.467Z,2.20
2023-08-28T23:16:36.937Z,2.10
2023-08-28T23:19:07.649Z,3.80
2023-08-28T23:21:38.234Z,3.80
2023-08-28T23:24:10.402Z,2.70
2023-08-28T23:26:41.620Z,5.20
2023-08-28T23:29:12.233Z,3.20
2023-08-28T23:31:43.576Z,7.60
2023-08-28T23:34:14.462Z,2.00
2023-08-28T23:36:45.501Z,8.70
2023-08-28T23:39:16.148Z,2.70
2023-08-28T23:41:48.670Z,4.60
2023-08-28T23:44:19.616Z,3.90
2023-08-28T23:46:50.710Z,3.40
2023-08-28T23:49:21.583Z,2.00
2023-08-28T23:51:53.139Z,2.30
2023-08-28T23:54:24.301Z,4.10
2023-08-28T23:56:55.256Z,3.00
2023-08-28T23:59:25.933Z,4.30
